Time;durP1;ratioP1;P1;durP2;ratioP2;P2;SDS_P1;SDS_P2;PMS_P1;PMS_P2;Temp;Humidity;BMP_temperature;BMP_pressure;BME280_temperature;BME280_humidity;BME280_pressure;Samples;Min_cycle;Max_cycle;Signal;HPM_P1;HPM_P2
2021/09/07 00:06:19;;;;;;;8.63;7.72;;;;;;;;;;1496882;26;20048;-83
2021/09/07 00:08:45;;;;;;;8.50;6.88;;;;;;;;;;5067508;28;20033;-83
2021/09/07 00:11:12;;;;;;;7.88;7.00;;;;;;;;;;5067169;28;20044;-83
2021/09/07 00:13:38;;;;;;;8.88;7.15;;;;;;;;;;5049276;28;20025;-83
2021/09/07 00:16:04;;;;;;;8.55;7.13;;;;;;;;;;5066298;28;20052;-84
2021/09/07 00:18:30;;;;;;;12.25;8.52;;;;;;;;;;5048787;28;20029;-81
2021/09/07 00:20:56;;;;;;;12.52;8.45;;;;;;;;;;5047859;28;20033;-82
2021/09/07 00:23:22;;;;;;;11.77;8.63;;;;;;;;;;5043921;28;20025;-83
2021/09/07 00:25:48;;;;;;;11.05;8.15;;;;;;;;;;5043258;28;20062;-82
2021/09/07 00:28:14;;;;;;;11.20;8.60;;;;;;;;;;5052676;28;20048;-81
2021/09/07 00:30:41;;;;;;;11.45;8.20;;;;;;;;;;5073460;28;20029;-83
2021/09/07 00:33:08;;;;;;;10.32;8.77;;;;;;;;;;5072969;28;20017;-81
2021/09/07 00:35:34;;;;;;;8.68;7.78;;;;;;;;;;5066772;28;20021;-84
2021/09/07 00:38:00;;;;;;;9.98;8.10;;;;;;;;;;5062303;28;20117;-84
2021/09/07 00:40:26;;;;;;;9.50;8.02;;;;;;;;;;5063283;28;20028;-82
2021/09/07 00:42:52;;;;;;;9.88;7.88;;;;;;;;;;5067270;28;20028;-84
2021/09/07 00:45:19;;;;;;;9.57;7.70;;;;;;;;;;5073106;28;20037;-82
2021/09/07 00:47:45;;;;;;;10.80;7.60;;;;;;;;;;5052226;28;20431;-83
2021/09/07 00:50:12;;;;;;;9.70;7.50;;;;;;;;;;5060481;28;20032;-82
2021/09/07 00:52:41;;;;;;;8.73;7.43;;;;;;;;;;5061265;28;20042;-83
2021/09/07 00:55:08;;;;;;;9.10;7.30;;;;;;;;;;5045712;28;20043;-83
2021/09/07 00:57:35;;;;;;;8.20;7.07;;;;;;;;;;5043204;28;20032;-82
2021/09/07 01:00:02;;;;;;;12.20;7.85;;;;;;;;;;5040972;28;20021;-83
2021/09/07 01:02:28;;;;;;;9.23;7.68;;;;;;;;;;5059077;28;20074;-82
2021/09/07 01:04:54;;;;;;;9.38;7.22;;;;;;;;;;5063025;28;20021;-83
2021/09/07 01:07:20;;;;;;;10.27;7.88;;;;;;;;;;5054801;28;20041;-83
2021/09/07 01:09:46;;;;;;;9.25;7.40;;;;;;;;;;5044677;28;20025;-83
2021/09/07 01:12:12;;;;;;;8.55;7.63;;;;;;;;;;5059736;28;20021;-82
2021/09/07 01:14:41;;;;;;;8.70;7.03;;;;;;;;;;5033614;28;20053;-83
2021/09/07 01:17:14;;;;;;;8.43;6.63;;;;;;;;;;5054806;28;20009;-82
2021/09/07 01:19:42;;;;;;;8.13;7.05;;;;;;;;;;5056982;28;20020;-83
2021/09/07 01:22:08;;;;;;;8.43;7.03;;;;;;;;;;5035538;28;20025;-82
2021/09/07 01:24:35;;;;;;;13.00;7.90;;;;;;;;;;5033813;28;20059;-82
2021/09/07 01:27:05;;;;;;;10.18;6.82;;;;;;;;;;5050720;28;20030;-82
2021/09/07 01:29:33;;;;;;;8.07;6.95;;;;;;;;;;5032054;28;20075;-83
2021/09/07 01:31:59;;;;;;;10.43;7.80;;;;;;;;;;5026804;28;20071;-82
2021/09/07 01:34:25;;;;;;;9.80;8.40;;;;;;;;;;5026403;28;20025;-82
2021/09/07 01:36:51;;;;;;;10.55;8.40;;;;;;;;;;5062654;28;20355;-84
2021/09/07 01:39:20;;;;;;;10.23;7.40;;;;;;;;;;5047078;28;20495;-83
2021/09/07 01:41:47;;;;;;;9.35;7.40;;;;;;;;;;5044135;28;20021;-83
2021/09/07 01:44:13;;;;;;;8.82;7.43;;;;;;;;;;5051389;28;20083;-83
2021/09/07 01:46:39;;;;;;;8.82;7.20;;;;;;;;;;5042582;28;20129;-82
2021/09/07 01:49:10;;;;;;;8.50;6.90;;;;;;;;;;5042796;28;20037;-83
2021/09/07 01:51:41;;;;;;;7.80;6.47;;;;;;;;;;5044232;28;20482;-83
2021/09/07 01:54:07;;;;;;;8.07;6.70;;;;;;;;;;5022708;28;20037;-83
2021/09/07 01:56:34;;;;;;;7.07;6.38;;;;;;;;;;5024826;28;20462;-83
2021/09/07 01:59:00;;;;;;;7.82;6.50;;;;;;;;;;5042110;28;20355;-83
2021/09/07 02:01:26;;;;;;;10.00;6.90;;;;;;;;;;5042167;28;20022;-83
2021/09/07 02:03:52;;;;;;;8.55;6.40;;;;;;;;;;5041934;28;20471;-84
2021/09/07 02:06:18;;;;;;;9.25;7.05;;;;;;;;;;5058541;28;20032;-83
2021/09/07 02:08:44;;;;;;;8.75;6.43;;;;;;;;;;5062856;28;20020;-84
2021/09/07 02:11:10;;;;;;;9.02;7.07;;;;;;;;;;5045163;28;20033;-83
2021/09/07 02:13:36;;;;;;;8.32;6.45;;;;;;;;;;5055425;28;20063;-82
2021/09/07 02:16:02;;;;;;;8.60;6.38;;;;;;;;;;5055418;28;20329;-82
2021/09/07 02:18:29;;;;;;;6.85;6.10;;;;;;;;;;5077623;28;20009;-82
2021/09/07 02:20:55;;;;;;;7.53;6.25;;;;;;;;;;5068079;28;20028;-82
2021/09/07 02:23:21;;;;;;;8.60;6.65;;;;;;;;;;5060878;28;20074;-84
2021/09/07 02:25:47;;;;;;;8.32;6.75;;;;;;;;;;5043142;28;20028;-84
2021/09/07 02:28:13;;;;;;;10.68;7.93;;;;;;;;;;5061014;28;20033;-83
2021/09/07 02:30:40;;;;;;;9.10;7.07;;;;;;;;;;5061232;28;20079;-84
2021/09/07 02:33:08;;;;;;;8.65;7.50;;;;;;;;;;5044065;28;20029;-83
2021/09/07 02:35:34;;;;;;;7.35;6.50;;;;;;;;;;5062442;28;20041;-83
2021/09/07 02:38:01;;;;;;;8.80;6.72;;;;;;;;;;5062291;28;20021;-83
2021/09/07 02:40:27;;;;;;;8.57;6.65;;;;;;;;;;5045488;28;20025;-81
2021/09/07 02:42:53;;;;;;;7.22;6.45;;;;;;;;;;5043603;28;20025;-83
2021/09/07 02:45:19;;;;;;;7.28;6.03;;;;;;;;;;5045245;28;20045;-82
2021/09/07 02:47:45;;;;;;;7.82;6.75;;;;;;;;;;5061885;28;20032;-83
2021/09/07 02:50:12;;;;;;;10.25;6.97;;;;;;;;;;5060964;28;20021;-83
2021/09/07 02:52:39;;;;;;;12.35;7.20;;;;;;;;;;5061167;28;20028;-83
2021/09/07 02:55:06;;;;;;;8.73;7.35;;;;;;;;;;5044058;28;20021;-83
2021/09/07 02:57:32;;;;;;;9.13;7.38;;;;;;;;;;5066418;28;20108;-83
2021/09/07 02:59:58;;;;;;;9.45;7.00;;;;;;;;;;5063912;28;20076;-83
2021/09/07 03:02:25;;;;;;;8.30;6.90;;;;;;;;;;5062227;28;20104;-83
2021/09/07 03:04:54;;;;;;;9.32;7.07;;;;;;;;;;5075297;28;20020;-82
2021/09/07 03:07:20;;;;;;;9.77;7.53;;;;;;;;;;5064047;28;20037;-82
2021/09/07 03:09:46;;;;;;;8.20;6.50;;;;;;;;;;5056224;28;20037;-82
2021/09/07 03:12:12;;;;;;;8.98;7.40;;;;;;;;;;5054556;28;20040;-81
2021/09/07 03:14:38;;;;;;;10.65;7.07;;;;;;;;;;5040613;28;20084;-84
2021/09/07 03:17:05;;;;;;;9.40;8.05;;;;;;;;;;5046492;28;20034;-84
2021/09/07 03:19:31;;;;;;;7.75;6.68;;;;;;;;;;5074300;28;20277;-84
2021/09/07 03:21:57;;;;;;;8.63;7.10;;;;;;;;;;5071479;28;20025;-84
2021/09/07 03:24:23;;;;;;;8.60;7.50;;;;;;;;;;5058210;28;20029;-83
2021/09/07 03:26:50;;;;;;;10.95;6.80;;;;;;;;;;5075459;28;20017;-83
2021/09/07 03:29:16;;;;;;;13.80;7.97;;;;;;;;;;5075981;28;20037;-83
2021/09/07 03:31:42;;;;;;;11.82;8.18;;;;;;;;;;5058611;28;20013;-83
2021/09/07 03:34:08;;;;;;;12.63;8.10;;;;;;;;;;5058497;28;20045;-84
2021/09/07 03:36:35;;;;;;;10.20;6.80;;;;;;;;;;5045860;28;20089;-84
2021/09/07 03:39:01;;;;;;;12.40;7.63;;;;;;;;;;5056071;28;20017;-84
2021/09/07 03:41:27;;;;;;;12.55;7.88;;;;;;;;;;5058355;28;20025;-84
2021/09/07 03:43:53;;;;;;;19.08;9.05;;;;;;;;;;5074701;28;20032;-84
2021/09/07 03:46:19;;;;;;;14.15;8.57;;;;;;;;;;5056735;28;20033;-84
2021/09/07 03:48:45;;;;;;;17.15;8.55;;;;;;;;;;5054808;28;20032;-83
2021/09/07 03:51:11;;;;;;;11.80;7.68;;;;;;;;;;5069955;28;20025;-83
2021/09/07 03:53:37;;;;;;;10.80;7.78;;;;;;;;;;5053911;28;20028;-81
2021/09/07 03:56:03;;;;;;;8.05;6.80;;;;;;;;;;5056077;28;20009;-81
2021/09/07 03:58:29;;;;;;;8.48;6.75;;;;;;;;;;5059013;28;20025;-80
2021/09/07 04:00:55;;;;;;;7.82;6.82;;;;;;;;;;5056411;28;20035;-82
2021/09/07 04:03:21;;;;;;;7.63;6.55;;;;;;;;;;5056172;28;20036;-83
2021/09/07 04:05:48;;;;;;;8.35;6.05;;;;;;;;;;5074993;28;20013;-81
2021/09/07 04:08:15;;;;;;;7.30;6.10;;;;;;;;;;5075382;28;20071;-79
2021/09/07 04:10:41;;;;;;;9.98;6.80;;;;;;;;;;5075334;28;20067;-81
2021/09/07 04:13:07;;;;;;;11.10;7.15;;;;;;;;;;5056766;28;20050;-83
2021/09/07 04:15:33;;;;;;;8.60;6.85;;;;;;;;;;5056834;28;20024;-83
2021/09/07 04:17:59;;;;;;;8.55;6.78;;;;;;;;;;5072901;28;20056;-82
2021/09/07 04:20:25;;;;;;;7.00;6.20;;;;;;;;;;5055888;28;20057;-81
2021/09/07 04:22:51;;;;;;;8.75;6.10;;;;;;;;;;5074254;28;20040;-83
2021/09/07 04:25:17;;;;;;;9.07;7.32;;;;;;;;;;5056293;28;20025;-83
2021/09/07 04:27:44;;;;;;;6.93;6.00;;;;;;;;;;5052503;28;20048;-80
2021/09/07 04:30:11;;;;;;;8.40;6.75;;;;;;;;;;5064407;28;20021;-79
2021/09/07 04:32:37;;;;;;;9.23;6.43;;;;;;;;;;5067592;28;20063;-81
2021/09/07 04:35:05;;;;;;;11.27;8.15;;;;;;;;;;5049925;28;20478;-82
2021/09/07 04:37:31;;;;;;;8.60;6.68;;;;;;;;;;5061576;28;20044;-80
2021/09/07 04:39:57;;;;;;;8.02;6.38;;;;;;;;;;5066597;28;20374;-80
2021/09/07 04:42:23;;;;;;;7.55;6.28;;;;;;;;;;5065549;28;20029;-79
2021/09/07 04:44:49;;;;;;;8.77;6.07;;;;;;;;;;5045594;28;20055;-80
2021/09/07 04:47:15;;;;;;;8.07;6.20;;;;;;;;;;5064144;28;20032;-80
2021/09/07 04:49:41;;;;;;;8.25;7.10;;;;;;;;;;5064867;28;20033;-80
2021/09/07 04:52:07;;;;;;;8.50;6.85;;;;;;;;;;5065108;28;20078;-80
2021/09/07 04:54:34;;;;;;;8.95;7.50;;;;;;;;;;5060532;28;20082;-83
2021/09/07 04:57:01;;;;;;;7.55;6.47;;;;;;;;;;5060469;28;20039;-82
2021/09/07 04:59:27;;;;;;;9.38;7.07;;;;;;;;;;5059803;28;20385;-82
2021/09/07 05:01:53;;;;;;;9.38;7.05;;;;;;;;;;5059073;28;20089;-82
2021/09/07 05:04:19;;;;;;;9.52;7.20;;;;;;;;;;5059798;28;20024;-82
2021/09/07 05:06:45;;;;;;;10.30;7.15;;;;;;;;;;5047804;28;20048;-80
2021/09/07 05:09:11;;;;;;;7.93;6.65;;;;;;;;;;5073223;28;20021;-79
2021/09/07 05:11:37;;;;;;;9.10;7.47;;;;;;;;;;5071349;28;20028;-84
2021/09/07 05:14:03;;;;;;;7.10;5.85;;;;;;;;;;5059637;28;20033;-83
2021/09/07 05:16:29;;;;;;;6.88;6.00;;;;;;;;;;5060909;28;20070;-83
2021/09/07 05:18:55;;;;;;;7.15;5.90;;;;;;;;;;5039830;28;20033;-82
2021/09/07 05:21:21;;;;;;;7.80;6.07;;;;;;;;;;5043583;28;20059;-81
2021/09/07 05:23:47;;;;;;;6.75;5.63;;;;;;;;;;5059685;28;20084;-84
2021/09/07 05:26:13;;;;;;;8.00;6.03;;;;;;;;;;5062362;28;20021;-82
2021/09/07 05:28:39;;;;;;;6.22;5.38;;;;;;;;;;5050184;28;20036;-80
2021/09/07 05:31:06;;;;;;;7.20;5.50;;;;;;;;;;5069523;28;20393;-82
2021/09/07 05:33:32;;;;;;;7.25;5.78;;;;;;;;;;5048045;28;20029;-82
2021/09/07 05:35:58;;;;;;;6.75;5.60;;;;;;;;;;5070119;28;20028;-80
2021/09/07 05:38:24;;;;;;;7.70;5.93;;;;;;;;;;5048077;28;20025;-82
2021/09/07 05:40:51;;;;;;;7.18;6.07;;;;;;;;;;5044726;28;20088;-82
2021/09/07 05:43:17;;;;;;;8.38;6.30;;;;;;;;;;5062894;28;20025;-82
2021/09/07 05:45:43;;;;;;;7.05;6.03;;;;;;;;;;5063903;28;20029;-82
2021/09/07 05:48:09;;;;;;;7.97;6.40;;;;;;;;;;5062323;28;20032;-82
2021/09/07 05:50:35;;;;;;;9.07;6.97;;;;;;;;;;5061871;28;20044;-82
2021/09/07 05:53:01;;;;;;;6.82;5.78;;;;;;;;;;5067626;28;20025;-80
2021/09/07 05:55:28;;;;;;;9.90;6.30;;;;;;;;;;5059154;28;20029;-80
2021/09/07 05:57:55;;;;;;;9.35;6.47;;;;;;;;;;5068291;28;20064;-82
2021/09/07 06:00:21;;;;;;;7.38;5.85;;;;;;;;;;5062897;28;20036;-81
2021/09/07 06:02:48;;;;;;;9.18;6.45;;;;;;;;;;5062589;28;20101;-83
2021/09/07 06:05:14;;;;;;;8.10;6.18;;;;;;;;;;5060881;28;20028;-82
2021/09/07 06:07:40;;;;;;;7.40;5.75;;;;;;;;;;5045575;28;20057;-82
2021/09/07 06:10:07;;;;;;;10.85;6.63;;;;;;;;;;5061921;28;20029;-82
2021/09/07 06:12:33;;;;;;;6.40;5.65;;;;;;;;;;5062642;28;20052;-83
2021/09/07 06:14:59;;;;;;;10.48;7.20;;;;;;;;;;5048047;28;20418;-81
2021/09/07 06:17:26;;;;;;;8.77;6.57;;;;;;;;;;5070784;28;20032;-80
2021/09/07 06:19:52;;;;;;;8.15;6.18;;;;;;;;;;5067429;28;20385;-81
2021/09/07 06:22:18;;;;;;;9.13;6.32;;;;;;;;;;5047594;28;20021;-82
2021/09/07 06:24:45;;;;;;;9.38;6.90;;;;;;;;;;5047247;28;20029;-82
2021/09/07 06:27:11;;;;;;;7.65;5.78;;;;;;;;;;5065972;28;20039;-81
2021/09/07 06:29:37;;;;;;;8.20;6.00;;;;;;;;;;5047444;28;20136;-82
2021/09/07 06:32:03;;;;;;;13.20;7.38;;;;;;;;;;5066685;28;20028;-81
2021/09/07 06:34:29;;;;;;;8.18;6.47;;;;;;;;;;5067026;28;20029;-80
2021/09/07 06:36:56;;;;;;;9.15;6.20;;;;;;;;;;5061411;28;20029;-82
2021/09/07 06:39:23;;;;;;;7.80;6.32;;;;;;;;;;5061762;28;20099;-79
2021/09/07 06:41:50;;;;;;;7.80;6.13;;;;;;;;;;5058634;28;20028;-80
2021/09/07 06:44:16;;;;;;;8.63;6.40;;;;;;;;;;5039204;28;20029;-80
2021/09/07 06:46:42;;;;;;;8.10;6.35;;;;;;;;;;5041802;28;20039;-82
2021/09/07 06:49:08;;;;;;;7.93;5.45;;;;;;;;;;5061868;28;20028;-82
2021/09/07 06:51:34;;;;;;;9.18;5.88;;;;;;;;;;5039868;28;20497;-81
2021/09/07 06:54:00;;;;;;;7.03;5.30;;;;;;;;;;5037625;28;20053;-80
2021/09/07 06:56:26;;;;;;;5.90;4.93;;;;;;;;;;5039398;28;20021;-81
2021/09/07 06:58:52;;;;;;;5.93;5.13;;;;;;;;;;5056051;28;20466;-80
2021/09/07 07:01:18;;;;;;;6.72;5.60;;;;;;;;;;5038063;28;20502;-80
2021/09/07 07:03:44;;;;;;;6.15;5.20;;;;;;;;;;5058445;28;20025;-79
2021/09/07 07:06:10;;;;;;;7.65;5.88;;;;;;;;;;5054926;28;20140;-81
2021/09/07 07:08:36;;;;;;;7.80;6.13;;;;;;;;;;5054571;28;20032;-81
2021/09/07 07:11:03;;;;;;;6.78;5.78;;;;;;;;;;5056071;28;20033;-81
2021/09/07 07:13:29;;;;;;;14.40;6.47;;;;;;;;;;5038412;28;20025;-80
2021/09/07 07:15:55;;;;;;;11.07;7.15;;;;;;;;;;5055092;28;20490;-81
2021/09/07 07:18:21;;;;;;;8.15;6.80;;;;;;;;;;5054973;28;20062;-81
2021/09/07 07:20:47;;;;;;;7.47;6.60;;;;;;;;;;5056351;28;20025;-82
2021/09/07 07:23:13;;;;;;;8.27;6.82;;;;;;;;;;5059951;28;20078;-83
2021/09/07 07:25:39;;;;;;;7.03;6.25;;;;;;;;;;5060464;28;20044;-83
2021/09/07 07:28:06;;;;;;;6.65;5.63;;;;;;;;;;5062655;28;20044;-83
2021/09/07 07:30:51;;;;;;;7.50;6.43;;;;;;;;;;5045535;28;20562;-83
2021/09/07 07:33:18;;;;;;;8.23;6.55;;;;;;;;;;5040896;28;20037;-81
2021/09/07 07:35:44;;;;;;;12.43;8.43;;;;;;;;;;5042077;28;20032;-81
2021/09/07 07:38:10;;;;;;;8.93;7.32;;;;;;;;;;5044866;28;20075;-82
2021/09/07 07:40:36;;;;;;;7.93;6.63;;;;;;;;;;5060305;28;20037;-82
2021/09/07 07:43:02;;;;;;;9.82;7.03;;;;;;;;;;5060047;28;20040;-82
2021/09/07 07:45:29;;;;;;;10.20;8.30;;;;;;;;;;5042310;28;20409;-82
2021/09/07 07:47:55;;;;;;;9.20;7.28;;;;;;;;;;5059134;28;20029;-82
2021/09/07 07:50:21;;;;;;;9.63;7.15;;;;;;;;;;5041958;28;20017;-82
2021/09/07 07:52:50;;;;;;;10.07;8.05;;;;;;;;;;5060358;28;20367;-81
2021/09/07 07:55:16;;;;;;;8.45;7.55;;;;;;;;;;5042190;28;20046;-82
2021/09/07 07:57:42;;;;;;;14.63;9.20;;;;;;;;;;5042498;28;20033;-82
2021/09/07 08:00:08;;;;;;;8.57;7.55;;;;;;;;;;5068097;28;20048;-81
2021/09/07 08:02:35;;;;;;;8.32;7.07;;;;;;;;;;5056371;28;20044;-82
2021/09/07 08:05:01;;;;;;;7.45;6.70;;;;;;;;;;5060309;28;20037;-81
2021/09/07 08:07:27;;;;;;;8.10;7.03;;;;;;;;;;5051725;28;20434;-81
2021/09/07 08:09:56;;;;;;;7.75;6.50;;;;;;;;;;5059960;28;20020;-82
2021/09/07 08:12:22;;;;;;;7.13;6.25;;;;;;;;;;5069967;28;20005;-81
2021/09/07 08:14:48;;;;;;;7.65;6.45;;;;;;;;;;5047902;28;20021;-82
2021/09/07 08:17:15;;;;;;;7.70;6.25;;;;;;;;;;5049747;28;20083;-81
2021/09/07 08:19:41;;;;;;;10.25;7.65;;;;;;;;;;5045998;28;20470;-81
2021/09/07 08:22:09;;;;;;;8.75;6.47;;;;;;;;;;5052676;28;20021;-81
2021/09/07 08:24:35;;;;;;;7.93;6.65;;;;;;;;;;5022236;28;20152;-81
2021/09/07 08:27:01;;;;;;;7.03;6.32;;;;;;;;;;5037286;28;20096;-81
2021/09/07 08:29:27;;;;;;;9.82;7.35;;;;;;;;;;5056657;28;20082;-81
2021/09/07 08:31:53;;;;;;;7.03;6.32;;;;;;;;;;5052460;28;20493;-81
2021/09/07 08:34:19;;;;;;;10.27;6.95;;;;;;;;;;5056826;28;20489;-80
2021/09/07 08:36:45;;;;;;;8.38;6.75;;;;;;;;;;5051366;28;20452;-81
2021/09/07 08:39:12;;;;;;;9.73;7.05;;;;;;;;;;5037847;28;20539;-80
2021/09/07 08:41:38;;;;;;;8.38;6.38;;;;;;;;;;5037073;28;20112;-80
2021/09/07 08:44:04;;;;;;;8.98;7.15;;;;;;;;;;5027033;28;20145;-80
2021/09/07 08:46:32;;;;;;;10.30;6.95;;;;;;;;;;5060893;28;20080;-84
2021/09/07 08:48:58;;;;;;;9.02;7.15;;;;;;;;;;5058699;28;20021;-81
2021/09/07 08:51:24;;;;;;;9.32;6.78;;;;;;;;;;5058316;28;20021;-83
2021/09/07 08:53:52;;;;;;;7.18;6.47;;;;;;;;;;5019326;28;20037;-80
2021/09/07 08:56:18;;;;;;;7.57;6.15;;;;;;;;;;5019996;28;20075;-81
2021/09/07 08:58:44;;;;;;;7.85;6.32;;;;;;;;;;5022308;28;20021;-80
2021/09/07 09:01:17;;;;;;;8.75;6.43;;;;;;;;;;5038557;28;20135;-80
2021/09/07 09:03:44;;;;;;;6.38;5.72;;;;;;;;;;5040213;28;20056;-80
2021/09/07 09:06:10;;;;;;;7.32;6.15;;;;;;;;;;5028680;28;20045;-82
2021/09/07 09:08:37;;;;;;;6.95;6.22;;;;;;;;;;5038936;28;20366;-80
2021/09/07 09:11:05;;;;;;;14.10;7.05;;;;;;;;;;5027313;28;20096;-80
2021/09/07 09:13:40;;;;;;;7.40;6.50;;;;;;;;;;5045163;28;20120;-80
2021/09/07 09:16:06;;;;;;;7.75;6.57;;;;;;;;;;5065158;28;20033;-80
2021/09/07 09:18:33;;;;;;;8.15;6.28;;;;;;;;;;5043800;28;20396;-81
2021/09/07 09:21:18;;;;;;;9.98;6.20;;;;;;;;;;5062073;28;20036;-82
2021/09/07 09:23:47;;;;;;;8.25;5.80;;;;;;;;;;5061818;28;20080;-82
2021/09/07 09:26:13;;;;;;;10.88;6.32;;;;;;;;;;5024133;28;20037;-80
2021/09/07 09:28:39;;;;;;;8.52;6.15;;;;;;;;;;5041347;28;20029;-81
2021/09/07 09:31:05;;;;;;;7.35;6.25;;;;;;;;;;5026581;28;20086;-79
2021/09/07 09:33:34;;;;;;;8.30;6.57;;;;;;;;;;5034920;28;20090;-80
2021/09/07 09:36:02;;;;;;;8.18;5.97;;;;;;;;;;5067046;28;20021;-80
2021/09/07 09:38:34;;;;;;;7.10;6.28;;;;;;;;;;5052509;28;20025;-81
2021/09/07 09:41:01;;;;;;;8.23;6.20;;;;;;;;;;5072941;28;20017;-82
2021/09/07 09:43:27;;;;;;;6.65;5.95;;;;;;;;;;5045153;28;20095;-82
2021/09/07 09:45:54;;;;;;;7.63;6.60;;;;;;;;;;5048374;28;20029;-81
2021/09/07 09:48:30;;;;;;;6.95;6.22;;;;;;;;;;5034881;28;20082;-80
2021/09/07 09:51:00;;;;;;;7.65;6.00;;;;;;;;;;5062451;28;20075;-81
2021/09/07 09:53:27;;;;;;;8.43;6.38;;;;;;;;;;5041888;28;20037;-82
2021/09/07 09:55:54;;;;;;;7.95;5.45;;;;;;;;;;5042059;28;20044;-81
2021/09/07 09:58:21;;;;;;;7.00;6.07;;;;;;;;;;5062051;28;20028;-80
2021/09/07 10:00:49;;;;;;;5.90;5.38;;;;;;;;;;5061314;28;20434;-81
2021/09/07 10:03:17;;;;;;;6.65;6.00;;;;;;;;;;5060058;28;20036;-81
2021/09/07 10:05:44;;;;;;;7.13;6.28;;;;;;;;;;5040486;28;20049;-80
2021/09/07 10:08:11;;;;;;;8.18;6.32;;;;;;;;;;5045310;28;20493;-81
2021/09/07 10:10:39;;;;;;;8.45;6.13;;;;;;;;;;5042395;28;20029;-81
2021/09/07 10:13:07;;;;;;;10.18;6.82;;;;;;;;;;5060090;28;20298;-80
2021/09/07 10:15:40;;;;;;;7.55;6.68;;;;;;;;;;5058917;28;20365;-81
2021/09/07 10:24:01;;;;;;;10.18;6.30;;;;;;;;;;5061766;28;20085;-81
2021/09/07 10:26:39;;;;;;;8.98;6.82;;;;;;;;;;5042002;28;20055;-82
2021/09/07 10:29:06;;;;;;;7.72;6.78;;;;;;;;;;5052135;28;20037;-80
2021/09/07 10:31:43;;;;;;;7.10;6.40;;;;;;;;;;5028681;28;20033;-81
2021/09/07 10:34:09;;;;;;;9.32;7.22;;;;;;;;;;5041148;28;20033;-81
2021/09/07 10:36:55;;;;;;;8.43;7.20;;;;;;;;;;5042150;28;20056;-81
2021/09/07 10:39:27;;;;;;;7.05;6.35;;;;;;;;;;5065115;28;20029;-80
2021/09/07 10:41:54;;;;;;;;;;;;;;;;;;5054436;28;20048;-82
2021/09/07 10:44:25;;;;;;;11.25;6.03;;;;;;;;;;5072066;28;19905;-81
2021/09/07 10:46:58;;;;;;;6.97;6.28;;;;;;;;;;5065491;28;20043;-81
2021/09/07 10:49:33;;;;;;;8.68;6.43;;;;;;;;;;5046442;28;20030;-82
2021/09/07 10:52:15;;;;;;;7.20;6.50;;;;;;;;;;5030465;28;20160;-82
2021/09/07 10:54:53;;;;;;;6.95;5.95;;;;;;;;;;5048262;28;20030;-81
2021/09/07 10:57:44;;;;;;;6.53;5.80;;;;;;;;;;5065048;28;20028;-82
2021/09/07 11:00:22;;;;;;;6.90;6.07;;;;;;;;;;5051102;23;20099;-77
2021/09/07 11:02:52;;;;;;;6.50;5.90;;;;;;;;;;5033090;28;20041;-80
2021/09/07 11:05:18;;;;;;;7.50;6.40;;;;;;;;;;5032867;28;20030;-80
2021/09/07 11:07:45;;;;;;;7.60;6.57;;;;;;;;;;5047792;28;20085;-80
2021/09/07 11:10:15;;;;;;;7.55;6.20;;;;;;;;;;5031964;28;20038;-80
2021/09/07 11:12:50;;;;;;;9.10;6.35;;;;;;;;;;5017359;28;20030;-80
2021/09/07 11:15:20;;;;;;;6.88;6.18;;;;;;;;;;5020817;28;20018;-79
2021/09/07 11:17:54;;;;;;;7.13;5.88;;;;;;;;;;5019533;28;20109;-79
2021/09/07 11:20:20;;;;;;;7.13;5.90;;;;;;;;;;5029347;28;20029;-81
2021/09/07 11:22:47;;;;;;;6.70;6.10;;;;;;;;;;5023215;28;20108;-79
2021/09/07 11:25:15;;;;;;;8.98;5.95;;;;;;;;;;5021069;28;20264;-81
2021/09/07 11:27:47;;;;;;;8.88;5.97;;;;;;;;;;5006867;28;20049;-79
2021/09/07 11:30:23;;;;;;;8.95;6.68;;;;;;;;;;5006670;28;20097;-78
2021/09/07 11:32:54;;;;;;;6.88;6.07;;;;;;;;;;5021648;28;20026;-79
2021/09/07 11:35:20;;;;;;;6.72;6.13;;;;;;;;;;5017139;28;20060;-79
2021/09/07 11:37:46;;;;;;;6.78;6.03;;;;;;;;;;5011848;28;20101;-79
2021/09/07 11:40:16;;;;;;;6.88;6.28;;;;;;;;;;5020070;28;20030;-80
2021/09/07 11:42:47;;;;;;;8.05;6.25;;;;;;;;;;5022543;28;20032;-79
2021/09/07 11:45:13;;;;;;;;;;;;;;;;;;5022014;28;20382;-79
2021/09/07 11:47:43;;;;;;;8.00;6.90;;;;;;;;;;5006465;28;19963;-81
2021/09/07 11:50:10;;;;;;;6.95;6.25;;;;;;;;;;5000381;28;20026;-79
2021/09/07 11:52:36;;;;;;;7.05;6.35;;;;;;;;;;4998620;28;20547;-79
2021/09/07 11:55:07;;;;;;;6.60;5.90;;;;;;;;;;5000096;28;20142;-79
2021/09/07 11:57:46;;;;;;;8.57;7.07;;;;;;;;;;4998074;28;20149;-80
2021/09/07 12:00:12;;;;;;;6.32;5.72;;;;;;;;;;5017888;28;20051;-80
2021/09/07 12:02:38;;;;;;;9.23;6.53;;;;;;;;;;5021127;28;20144;-79
2021/09/07 12:05:06;;;;;;;8.27;5.82;;;;;;;;;;5027003;28;20060;-79
2021/09/07 12:07:32;;;;;;;5.97;5.40;;;;;;;;;;5016503;28;20552;-79
2021/09/07 12:10:08;;;;;;;7.15;6.25;;;;;;;;;;5024497;28;20021;-79
2021/09/07 12:12:36;;;;;;;6.30;5.47;;;;;;;;;;5025724;28;20034;-81
2021/09/07 12:15:15;;;;;;;6.30;5.15;;;;;;;;;;5025131;28;20064;-80
2021/09/07 12:17:42;;;;;;;6.60;5.72;;;;;;;;;;5018142;28;20034;-80
2021/09/07 12:20:16;;;;;;;5.80;5.25;;;;;;;;;;5023104;28;20021;-82
2021/09/07 12:22:43;;;;;;;6.72;5.40;;;;;;;;;;5024908;28;20034;-81
2021/09/07 12:25:13;;;;;;;6.90;5.63;;;;;;;;;;5025791;28;20110;-80
2021/09/07 12:27:59;;;;;;;8.15;5.90;;;;;;;;;;5022912;28;20422;-79
2021/09/07 12:30:28;;;;;;;7.70;5.78;;;;;;;;;;5023863;28;20038;-79
2021/09/07 12:32:59;;;;;;;7.32;5.88;;;;;;;;;;5024758;28;20109;-80
2021/09/07 12:35:29;;;;;;;7.93;5.78;;;;;;;;;;5023704;28;20052;-79
2021/09/07 12:37:55;;;;;;;6.75;5.70;;;;;;;;;;5017621;28;20022;-81
2021/09/07 12:40:21;;;;;;;6.45;5.85;;;;;;;;;;5028511;28;20042;-79
2021/09/07 12:42:48;;;;;;;5.65;5.05;;;;;;;;;;5028273;28;20048;-80
2021/09/07 12:45:14;;;;;;;6.65;5.95;;;;;;;;;;5026413;28;20188;-80
2021/09/07 12:47:40;;;;;;;5.80;5.22;;;;;;;;;;5020268;28;20529;-80
2021/09/07 12:50:07;;;;;;;5.70;5.20;;;;;;;;;;5028052;28;20032;-78
2021/09/07 12:52:33;;;;;;;6.68;5.97;;;;;;;;;;5033242;28;20036;-79
2021/09/07 12:54:59;;;;;;;7.50;5.60;;;;;;;;;;5033559;28;20029;-80
2021/09/07 12:57:25;;;;;;;7.00;6.30;;;;;;;;;;5030326;28;20033;-80
2021/09/07 12:59:51;;;;;;;7.28;6.13;;;;;;;;;;5027268;28;20034;-80
2021/09/07 13:02:17;;;;;;;8.15;6.25;;;;;;;;;;5027384;28;20030;-80
2021/09/07 13:04:43;;;;;;;6.13;5.53;;;;;;;;;;5026445;28;20034;-81
2021/09/07 13:07:09;;;;;;;8.70;5.85;;;;;;;;;;5020126;28;20081;-79
2021/09/07 13:09:35;;;;;;;8.00;5.88;;;;;;;;;;5027764;28;20089;-79
2021/09/07 13:12:01;;;;;;;10.82;5.97;;;;;;;;;;5028349;28;20026;-81
2021/09/07 13:14:27;;;;;;;13.18;6.00;;;;;;;;;;5028317;28;20026;-80
2021/09/07 13:16:53;;;;;;;7.40;5.80;;;;;;;;;;5018996;28;20023;-80
2021/09/07 13:19:20;;;;;;;6.50;5.63;;;;;;;;;;5006494;28;20049;-81
2021/09/07 13:21:46;;;;;;;7.93;5.72;;;;;;;;;;5018791;28;20037;-81
2021/09/07 13:24:12;;;;;;;6.68;5.70;;;;;;;;;;5007931;28;20092;-81
2021/09/07 13:26:38;;;;;;;7.00;5.90;;;;;;;;;;5005807;28;20398;-82
2021/09/07 13:29:04;;;;;;;6.03;5.25;;;;;;;;;;5006818;28;20387;-80
2021/09/07 13:31:30;;;;;;;6.18;5.57;;;;;;;;;;5018107;28;20390;-80
2021/09/07 13:33:56;;;;;;;5.93;5.32;;;;;;;;;;5026285;28;20093;-80
2021/09/07 13:36:22;;;;;;;6.53;5.88;;;;;;;;;;5022448;28;20030;-81
2021/09/07 13:38:48;;;;;;;6.60;6.00;;;;;;;;;;5022611;28;20052;-80
2021/09/07 13:41:14;;;;;;;7.25;5.95;;;;;;;;;;5007187;28;20030;-80
2021/09/07 13:43:41;;;;;;;12.48;6.78;;;;;;;;;;5007714;28;20086;-79
2021/09/07 13:46:07;;;;;;;6.80;6.20;;;;;;;;;;5015720;28;20021;-81
2021/09/07 13:48:38;;;;;;;9.20;6.15;;;;;;;;;;5020119;28;20050;-80
2021/09/07 13:51:04;;;;;;;7.95;5.75;;;;;;;;;;5026448;28;20086;-81
2021/09/07 13:53:30;;;;;;;7.88;5.90;;;;;;;;;;5025495;28;20030;-79
2021/09/07 13:55:56;;;;;;;6.53;5.82;;;;;;;;;;5026701;28;20065;-80
2021/09/07 13:58:22;;;;;;;6.63;5.65;;;;;;;;;;5026080;28;20124;-80
2021/09/07 14:00:48;;;;;;;7.80;6.13;;;;;;;;;;5026426;28;20052;-79
2021/09/07 14:03:14;;;;;;;6.47;5.88;;;;;;;;;;5025950;28;20094;-80
2021/09/07 14:05:41;;;;;;;9.30;6.30;;;;;;;;;;5027240;28;20022;-79
2021/09/07 14:08:07;;;;;;;7.43;6.43;;;;;;;;;;5020538;28;20021;-78
2021/09/07 14:10:33;;;;;;;7.25;5.78;;;;;;;;;;5036890;28;20040;-79
2021/09/07 14:12:59;;;;;;;8.05;6.70;;;;;;;;;;5037756;28;20022;-79
2021/09/07 14:15:25;;;;;;;9.32;6.72;;;;;;;;;;5028966;28;20041;-81
2021/09/07 14:17:51;;;;;;;9.30;6.70;;;;;;;;;;5019033;28;20029;-81
2021/09/07 14:20:18;;;;;;;10.65;6.65;;;;;;;;;;5027378;28;20073;-80
2021/09/07 14:22:44;;;;;;;8.80;6.65;;;;;;;;;;5032296;28;20093;-77
2021/09/07 14:25:11;;;;;;;7.38;6.55;;;;;;;;;;5030701;28;20161;-78
2021/09/07 14:27:37;;;;;;;8.65;6.40;;;;;;;;;;5026993;28;20042;-81
2021/09/07 14:30:04;;;;;;;8.05;6.85;;;;;;;;;;5026334;28;20037;-80
2021/09/07 14:32:30;;;;;;;6.22;5.60;;;;;;;;;;5025975;28;20032;-79
2021/09/07 14:34:56;;;;;;;7.70;6.65;;;;;;;;;;5029088;28;20030;-79
2021/09/07 14:37:23;;;;;;;7.38;6.38;;;;;;;;;;5030990;28;20022;-80
2021/09/07 14:39:49;;;;;;;6.95;6.20;;;;;;;;;;5036212;28;20108;-81
2021/09/07 14:42:15;;;;;;;6.60;5.88;;;;;;;;;;5035138;28;20093;-78
2021/09/07 14:44:41;;;;;;;7.80;5.88;;;;;;;;;;5032420;28;20086;-80
2021/09/07 14:47:07;;;;;;;6.82;6.13;;;;;;;;;;5024312;28;20026;-81
2021/09/07 14:49:33;;;;;;;11.43;7.00;;;;;;;;;;5045717;28;20018;-80
2021/09/07 14:52:00;;;;;;;6.70;5.97;;;;;;;;;;5044284;28;20022;-82